Time;durP1;ratioP1;P1;durP2;ratioP2;P2;SDS_P1;SDS_P2;PMS_P1;PMS_P2;Temp;Humidity;BMP_temperature;BMP_pressure;BME280_temperature;BME280_humidity;BME280_pressure;Samples;Min_cycle;Max_cycle;Signal;HPM_P1;HPM_P2
2023/06/01 00:01:37;;;;;;;16.43;8.00;;;;;;;-145.18;100.00;46654.53;5040425;28;20060;-59
2023/06/01 00:04:03;;;;;;;21.70;8.43;;;;;;;-145.18;100.00;46660.41;5050464;28;20024;-59
2023/06/01 00:06:30;;;;;;;16.50;7.97;;;;;;;-145.18;100.00;46652.59;5051809;28;20021;-58
2023/06/01 00:08:58;;;;;;;16.80;7.87;;;;;;;-145.18;100.00;46652.59;5051719;28;20033;-59
2023/06/01 00:11:25;;;;;;;16.37;8.53;;;;;;;-145.18;100.00;46654.53;5052087;28;20359;-58
2023/06/01 00:13:51;;;;;;;18.93;8.50;;;;;;;-145.18;100.00;46656.50;5047199;28;20037;-59
2023/06/01 00:16:17;;;;;;;15.17;7.50;;;;;;;-145.18;100.00;46654.53;5051787;28;20032;-59
2023/06/01 00:18:43;;;;;;;19.20;8.63;;;;;;;-145.18;100.00;46658.44;5064966;28;20082;-59
2023/06/01 00:21:08;;;;;;;19.83;7.73;;;;;;;-145.18;100.00;46662.34;5052106;28;20490;-59
2023/06/01 00:23:34;;;;;;;19.37;9.30;;;;;;;-145.18;100.00;46652.59;5046412;28;20494;-59
2023/06/01 00:26:00;;;;;;;19.03;8.93;;;;;;;-145.18;100.00;46652.59;5038266;28;20031;-59
2023/06/01 00:28:25;;;;;;;21.63;9.03;;;;;;;-145.18;100.00;46662.34;5036422;28;20039;-58
2023/06/01 00:30:52;;;;;;;25.40;8.47;;;;;;;-145.18;100.00;46650.63;5039702;28;20107;-59
2023/06/01 00:33:18;;;;;;;13.70;8.07;;;;;;;-145.18;100.00;46654.53;5024837;28;20383;-59
2023/06/01 00:35:43;;;;;;;25.07;8.40;;;;;;;-145.18;100.00;46658.44;5042562;28;20044;-58
2023/06/01 00:38:09;;;;;;;17.37;7.30;;;;;;;-145.18;100.00;46654.53;5036212;28;20032;-58
2023/06/01 00:40:34;;;;;;;18.40;8.03;;;;;;;-145.18;100.00;46652.59;5038279;28;20029;-59
2023/06/01 00:43:00;;;;;;;20.37;7.43;;;;;;;-145.18;100.00;46656.50;5045175;28;20032;-59
2023/06/01 00:45:26;;;;;;;20.40;8.23;;;;;;;-145.18;100.00;46654.53;5024691;28;20389;-59
2023/06/01 00:47:52;;;;;;;16.47;7.60;;;;;;;-145.18;100.00;46656.50;5048518;28;20086;-58
2023/06/01 00:50:18;;;;;;;18.03;7.30;;;;;;;-145.18;100.00;46654.53;5021799;28;20079;-59
2023/06/01 00:52:46;;;;;;;13.33;7.43;;;;;;;-145.18;100.00;46654.53;5046413;28;20033;-58
2023/06/01 00:55:12;;;;;;;17.07;7.53;;;;;;;-145.18;100.00;46654.53;5040860;28;20109;-59
2023/06/01 00:57:39;;;;;;;13.70;6.53;;;;;;;-145.18;100.00;46656.50;5045337;28;20033;-59
2023/06/01 01:00:08;;;;;;;15.23;6.33;;;;;;;-145.18;100.00;46656.50;5042768;28;20350;-58
2023/06/01 01:02:39;;;;;;;14.90;7.33;;;;;;;-145.18;100.00;46660.41;5046439;28;20039;-58
2023/06/01 01:05:09;;;;;;;16.53;6.97;;;;;;;-145.18;100.00;46652.59;5042851;28;20017;-59
2023/06/01 01:07:50;;;;;;;14.33;6.50;;;;;;;-145.18;100.00;46652.59;5038029;28;20271;-59
2023/06/01 01:10:34;;;;;;;19.37;7.40;;;;;;;-145.18;100.00;46650.63;5046771;28;21180;-59
2023/06/01 01:13:22;;;;;;;13.13;6.60;;;;;;;-145.18;100.00;46658.44;5036051;28;20250;-59
2023/06/01 01:16:07;;;;;;;16.03;6.83;;;;;;;-145.18;100.00;46652.59;5037330;28;20279;-59
2023/06/01 01:18:46;;;;;;;11.10;6.47;;;;;;;-145.18;100.00;46654.53;5046212;28;20293;-59
2023/06/01 01:21:28;;;;;;;17.37;6.97;;;;;;;-145.18;100.00;46652.59;5042667;28;20612;-59
2023/06/01 01:24:14;;;;;;;15.07;7.03;;;;;;;-145.18;100.00;46654.53;5042082;28;20051;-59
2023/06/01 01:27:24;;;;;;;15.40;7.60;;;;;;;-145.18;100.00;46656.50;5042158;28;20353;-59
2023/06/01 01:29:53;;;;;;;14.17;7.20;;;;;;;-145.18;100.00;46656.50;5009867;28;20295;-59
2023/06/01 01:32:21;;;;;;;11.57;6.87;;;;;;;-145.18;100.00;46652.59;5034852;28;20271;-58
2023/06/01 01:34:48;;;;;;;16.77;7.73;;;;;;;-145.18;100.00;46652.59;5039757;28;22200;-59
2023/06/01 01:37:14;;;;;;;16.63;8.23;;;;;;;-145.18;100.00;46650.63;5040637;28;20473;-59
2023/06/01 01:39:39;;;;;;;13.50;7.00;;;;;;;-145.18;100.00;46652.59;5039414;28;20748;-59
2023/06/01 01:42:05;;;;;;;12.97;7.07;;;;;;;-145.18;100.00;46660.41;5039594;28;20039;-59
2023/06/01 01:44:31;;;;;;;18.07;6.77;;;;;;;-145.18;100.00;46652.59;5033053;28;20087;-60
2023/06/01 01:47:09;;;;;;;16.67;7.20;;;;;;;-145.18;100.00;46662.34;5042738;28;20029;-59
2023/06/01 01:49:42;;;;;;;16.27;6.77;;;;;;;-145.18;100.00;46658.44;5044808;28;20521;-59
2023/06/01 01:52:10;;;;;;;11.53;6.53;;;;;;;-145.18;100.00;46658.44;5047293;28;20028;-59
2023/06/01 01:54:43;;;;;;;18.20;7.07;;;;;;;-145.18;100.00;46656.50;5048407;28;20846;-59
2023/06/01 01:57:09;;;;;;;17.23;7.50;;;;;;;-145.18;100.00;46654.53;5045876;28;20269;-59
2023/06/01 01:59:35;;;;;;;16.83;6.40;;;;;;;-145.18;100.00;46662.34;5041121;28;20325;-58
2023/06/01 02:02:02;;;;;;;15.70;6.90;;;;;;;-145.18;100.00;46654.53;5044439;28;20056;-59
2023/06/01 02:04:28;;;;;;;14.17;6.33;;;;;;;-145.18;100.00;46656.50;5038229;28;20301;-59
2023/06/01 02:06:53;;;;;;;14.47;6.47;;;;;;;-145.18;100.00;46662.34;5010147;28;20270;-59
2023/06/01 02:09:18;;;;;;;13.37;6.67;;;;;;;-145.18;100.00;46656.50;5047733;28;20398;-59
2023/06/01 02:11:44;;;;;;;11.67;6.60;;;;;;;-145.18;100.00;46656.50;5044654;28;20029;-60
2023/06/01 02:14:10;;;;;;;13.27;6.37;;;;;;;-145.18;100.00;46660.41;5044092;28;20037;-59
2023/06/01 02:16:35;;;;;;;15.97;7.20;;;;;;;-145.18;100.00;46660.41;5049526;28;20039;-59
2023/06/01 02:19:02;;;;;;;15.37;6.87;;;;;;;-145.18;100.00;46658.44;5049558;28;20048;-59
2023/06/01 02:21:27;;;;;;;19.80;6.47;;;;;;;-145.18;100.00;46652.59;5044038;28;20032;-59
2023/06/01 02:23:53;;;;;;;14.83;6.10;;;;;;;-145.18;100.00;46656.50;5047336;28;20276;-59
2023/06/01 02:26:18;;;;;;;16.43;6.73;;;;;;;-145.18;100.00;46664.31;5048113;28;20039;-58
2023/06/01 02:28:44;;;;;;;15.87;6.37;;;;;;;-145.18;100.00;46656.50;5045948;28;20033;-59
2023/06/01 02:31:09;;;;;;;16.30;6.80;;;;;;;-145.18;100.00;46660.41;5040978;28;20053;-59
2023/06/01 02:33:35;;;;;;;12.10;6.43;;;;;;;-145.18;100.00;46654.53;5039557;28;20574;-59
2023/06/01 02:36:01;;;;;;;17.00;7.20;;;;;;;-145.18;100.00;46662.34;5042078;28;20522;-59
2023/06/01 02:38:27;;;;;;;13.33;6.20;;;;;;;-145.18;100.00;46658.44;5040817;28;20025;-59
2023/06/01 02:40:52;;;;;;;15.70;7.20;;;;;;;-145.18;100.00;46656.50;5040911;28;20025;-59
2023/06/01 02:43:18;;;;;;;13.23;7.57;;;;;;;-145.18;100.00;46654.53;5040377;28;20113;-59
2023/06/01 02:45:43;;;;;;;15.00;5.97;;;;;;;-145.18;100.00;46656.50;5046035;28;20087;-59
2023/06/01 02:48:09;;;;;;;13.80;6.30;;;;;;;-145.18;100.00;46654.53;5046601;28;20083;-59
2023/06/01 02:50:35;;;;;;;17.60;8.37;;;;;;;-145.18;100.00;46654.53;5045603;28;20033;-59
2023/06/01 02:53:01;;;;;;;15.73;7.00;;;;;;;-145.18;100.00;46656.50;5045730;28;20510;-59
2023/06/01 02:55:26;;;;;;;15.60;7.13;;;;;;;-145.18;100.00;46664.31;5036858;28;20541;-59
2023/06/01 02:57:52;;;;;;;14.27;7.20;;;;;;;-145.18;100.00;46658.44;5042274;28;20045;-59
2023/06/01 03:00:17;;;;;;;14.60;6.70;;;;;;;-145.18;100.00;46662.34;5044830;28;20045;-58
2023/06/01 03:02:44;;;;;;;18.43;8.70;;;;;;;-145.18;100.00;46658.44;5043628;28;20421;-59
2023/06/01 03:05:12;;;;;;;16.53;7.80;;;;;;;-145.18;100.00;46662.34;5040226;28;20037;-59
2023/06/01 03:07:38;;;;;;;17.43;6.77;;;;;;;-145.18;100.00;46662.34;5036457;28;20324;-59
2023/06/01 03:10:06;;;;;;;11.93;5.90;;;;;;;-145.18;100.00;46664.31;5042709;28;20275;-59
2023/06/01 03:12:32;;;;;;;15.73;6.90;;;;;;;-145.18;100.00;46666.25;5042205;28;20361;-59
2023/06/01 03:14:57;;;;;;;10.73;6.50;;;;;;;-145.18;100.00;46664.31;5045521;28;20135;-59
2023/06/01 03:17:23;;;;;;;14.60;6.60;;;;;;;-145.18;100.00;46662.34;5043543;28;20040;-60
2023/06/01 03:19:48;;;;;;;15.27;7.77;;;;;;;-145.18;100.00;46668.22;5044499;28;20048;-59
2023/06/01 03:22:13;;;;;;;16.30;6.93;;;;;;;-145.18;100.00;46670.16;5042188;28;20108;-59
2023/06/01 03:24:41;;;;;;;12.67;6.50;;;;;;;-145.18;100.00;46666.25;5042362;28;20376;-59
2023/06/01 03:27:06;;;;;;;17.00;6.13;;;;;;;-145.18;100.00;46668.22;5037247;28;20545;-59
2023/06/01 03:29:32;;;;;;;13.37;6.10;;;;;;;-145.18;100.00;46660.41;5044364;28;20274;-59
2023/06/01 03:31:57;;;;;;;15.80;7.00;;;;;;;-145.18;100.00;46662.34;5028801;28;20033;-59
2023/06/01 03:34:23;;;;;;;13.30;6.70;;;;;;;-145.18;100.00;46662.34;5045367;28;20044;-59
2023/06/01 03:36:48;;;;;;;16.63;6.73;;;;;;;-145.18;100.00;46664.31;5045689;28;20430;-59
2023/06/01 03:39:15;;;;;;;12.87;6.37;;;;;;;-145.18;100.00;46664.31;5024152;28;20491;-59
2023/06/01 03:41:42;;;;;;;13.03;6.20;;;;;;;-145.18;100.00;46670.16;5038487;28;20037;-60
2023/06/01 03:44:09;;;;;;;10.20;6.27;;;;;;;-145.18;100.00;46666.25;5041661;28;20276;-60
2023/06/01 03:46:34;;;;;;;11.20;5.70;;;;;;;-145.18;100.00;46670.16;5045190;28;20275;-59
2023/06/01 03:49:00;;;;;;;12.13;5.80;;;;;;;-145.18;100.00;46670.16;5042494;28;20349;-59
2023/06/01 03:51:25;;;;;;;11.80;6.50;;;;;;;-145.18;100.00;46664.31;5042730;28;20041;-59
2023/06/01 03:53:51;;;;;;;15.07;6.53;;;;;;;-145.18;100.00;46666.25;5023197;28;20032;-59
2023/06/01 03:56:17;;;;;;;13.63;6.83;;;;;;;-145.18;100.00;46672.13;5034448;28;20029;-59
2023/06/01 03:58:42;;;;;;;16.03;7.47;;;;;;;-145.18;100.00;46672.13;5045388;28;20483;-59
2023/06/01 04:01:07;;;;;;;14.23;7.90;;;;;;;-145.18;100.00;46668.22;5044683;28;20045;-57
2023/06/01 04:03:33;;;;;;;14.37;7.23;;;;;;;-145.18;100.00;46670.16;5043496;28;20037;-59
2023/06/01 04:05:59;;;;;;;11.23;5.77;;;;;;;-145.18;100.00;46672.13;5040122;28;20056;-59
2023/06/01 04:08:25;;;;;;;16.53;6.47;;;;;;;-145.18;100.00;46668.22;5041829;28;20037;-59
2023/06/01 04:10:51;;;;;;;13.50;5.63;;;;;;;-145.18;100.00;46674.06;5022930;28;20033;-59
2023/06/01 04:13:16;;;;;;;12.70;6.03;;;;;;;-145.18;100.00;46670.16;5041436;28;20289;-59
2023/06/01 04:15:42;;;;;;;16.77;6.50;;;;;;;-145.18;100.00;46666.25;5043371;28;20029;-59
2023/06/01 04:18:07;;;;;;;14.60;6.20;;;;;;;-145.18;100.00;46674.06;5048456;28;20483;-59
2023/06/01 04:20:34;;;;;;;17.47;7.83;;;;;;;-145.18;100.00;46674.06;5042955;28;20040;-59
2023/06/01 04:23:00;;;;;;;13.57;6.33;;;;;;;-145.18;100.00;46676.03;5046096;28;20162;-59
2023/06/01 04:25:25;;;;;;;13.13;5.90;;;;;;;-145.18;100.00;46677.97;5045166;28;20732;-59
2023/06/01 04:27:54;;;;;;;14.73;6.07;;;;;;;-145.18;100.00;46676.03;5045011;28;20037;-59
2023/06/01 04:30:20;;;;;;;16.97;7.50;;;;;;;-145.18;100.00;46674.06;5044362;28;20032;-59
2023/06/01 04:32:47;;;;;;;17.77;6.90;;;;;;;-145.18;100.00;46674.06;5040268;28;20274;-59
2023/06/01 04:35:14;;;;;;;15.77;8.07;;;;;;;-145.18;100.00;46674.06;5024051;28;20513;-60
2023/06/01 04:37:41;;;;;;;14.60;7.00;;;;;;;-145.18;100.00;46679.94;5040127;28;20278;-60
2023/06/01 04:40:10;;;;;;;14.77;7.47;;;;;;;-145.18;100.00;46676.03;5041265;28;20336;-59
2023/06/01 04:42:38;;;;;;;22.57;7.30;;;;;;;-145.18;100.00;46679.94;5027489;28;20278;-59
2023/06/01 04:45:07;;;;;;;13.60;6.90;;;;;;;-145.18;100.00;46685.78;5043090;28;20028;-59
2023/06/01 04:47:37;;;;;;;14.50;7.47;;;;;;;-145.18;100.00;46683.84;5043815;28;20272;-60
2023/06/01 04:50:05;;;;;;;16.97;7.47;;;;;;;-145.18;100.00;46674.06;5051864;28;20289;-59
2023/06/01 04:52:30;;;;;;;13.50;7.10;;;;;;;-145.18;100.00;46681.88;5064879;28;20246;-60
2023/06/01 04:54:56;;;;;;;19.83;9.63;;;;;;;-145.18;100.00;46685.78;5051372;28;20372;-59
2023/06/01 04:57:23;;;;;;;13.80;8.13;;;;;;;-145.18;100.00;46676.03;5051128;28;20021;-59
2023/06/01 04:59:48;;;;;;;15.00;7.27;;;;;;;-145.18;100.00;46685.78;5051699;28;20056;-59
2023/06/01 05:02:14;;;;;;;9.20;6.20;;;;;;;-145.18;100.00;46685.78;5051427;28;20763;-59
2023/06/01 05:04:40;;;;;;;12.40;5.93;;;;;;;-145.18;100.00;46681.88;5051503;28;20032;-59
2023/06/01 05:07:05;;;;;;;13.03;7.10;;;;;;;-145.18;100.00;46683.84;5050825;28;20490;-59
2023/06/01 05:09:31;;;;;;;18.13;7.43;;;;;;;-145.18;100.00;46679.94;5044274;28;20040;-59
2023/06/01 05:11:56;;;;;;;14.27;7.00;;;;;;;-145.18;100.00;46681.88;5039830;28;20037;-59
2023/06/01 05:14:22;;;;;;;12.33;7.17;;;;;;;-145.18;100.00;46681.88;5033447;28;20025;-59
2023/06/01 05:16:48;;;;;;;16.00;7.47;;;;;;;-145.18;100.00;46683.84;5053341;28;20033;-59
2023/06/01 05:19:14;;;;;;;13.17;6.63;;;;;;;-145.18;100.00;46681.88;5055375;28;20036;-59
2023/06/01 05:21:41;;;;;;;15.53;8.00;;;;;;;-145.18;100.00;46679.94;5036988;28;20390;-60
2023/06/01 05:24:07;;;;;;;20.77;9.40;;;;;;;-145.18;100.00;46679.94;5054893;28;20043;-60
2023/06/01 05:26:32;;;;;;;20.90;8.70;;;;;;;-145.18;100.00;46679.94;5050762;28;20246;-58
2023/06/01 05:28:58;;;;;;;23.50;10.03;;;;;;;-145.18;100.00;46676.03;5047014;28;20037;-59
2023/06/01 05:31:23;;;;;;;19.03;9.07;;;;;;;-145.18;100.00;46674.06;5054847;28;20055;-59
2023/06/01 05:33:48;;;;;;;16.93;7.97;;;;;;;-145.18;100.00;46672.13;5054999;28;20503;-59
2023/06/01 05:36:14;;;;;;;19.57;8.70;;;;;;;-145.18;100.00;46658.44;5024061;28;20524;-59
2023/06/01 05:38:39;;;;;;;18.10;9.90;;;;;;;-145.18;100.00;46654.53;5064159;28;20100;-59
2023/06/01 05:41:05;;;;;;;18.60;8.57;;;;;;;-145.18;100.00;46650.63;5040973;28;20489;-59
2023/06/01 05:43:30;;;;;;;13.10;7.13;;;;;;;-145.18;100.00;46650.63;5063696;28;20067;-59
2023/06/01 05:45:56;;;;;;;15.00;7.57;;;;;;;-145.18;100.00;46638.91;5057932;28;20021;-59
2023/06/01 05:48:21;;;;;;;15.57;7.47;;;;;;;-145.18;100.00;46601.78;5045521;28;20440;-59
2023/06/01 05:50:46;;;;;;;12.97;7.33;;;;;;;-145.18;100.00;46584.22;5067208;28;20028;-59
2023/06/01 05:53:12;;;;;;;14.10;7.43;;;;;;;-145.18;100.00;46566.63;5037297;28;20029;-59
2023/06/01 05:55:37;;;;;;;17.10;6.60;;;;;;;-145.18;100.00;46558.81;5042054;28;20029;-59
2023/06/01 05:58:03;;;;;;;12.63;6.83;;;;;;;-145.18;100.00;46558.81;5054459;28;20032;-59
2023/06/01 06:00:28;;;;;;;12.87;6.73;;;;;;;-145.18;100.00;46551.00;5057677;28;20024;-59
2023/06/01 06:02:53;;;;;;;18.57;8.03;;;;;;;-145.18;100.00;46543.19;5064054;28;20025;-60
2023/06/01 06:05:19;;;;;;;20.50;7.87;;;;;;;-145.18;100.00;46543.19;5054262;28;20028;-59
2023/06/01 06:07:44;;;;;;;17.03;7.20;;;;;;;-145.18;100.00;46543.19;5029065;28;20482;-59
2023/06/01 06:10:11;;;;;;;12.83;6.97;;;;;;;-145.18;100.00;46539.28;5050476;28;20490;-59
2023/06/01 06:12:37;;;;;;;12.03;6.67;;;;;;;-145.18;100.00;46539.28;5054317;28;20028;-59
2023/06/01 06:15:04;;;;;;;14.00;6.87;;;;;;;-145.18;100.00;46535.38;5054234;28;20051;-59
2023/06/01 06:17:29;;;;;;;13.63;7.03;;;;;;;-145.18;100.00;46535.38;5058525;28;20039;-58
2023/06/01 06:19:54;;;;;;;12.47;6.53;;;;;;;-145.18;100.00;46533.44;5043687;28;20048;-60
2023/06/01 06:22:20;;;;;;;15.67;7.13;;;;;;;-145.18;100.00;46535.38;5054198;28;20107;-59
2023/06/01 06:24:47;;;;;;;19.37;7.73;;;;;;;-145.18;100.00;46535.38;5053918;28;20087;-59
2023/06/01 06:27:12;;;;;;;12.73;7.40;;;;;;;-145.18;100.00;46543.19;5053378;28;20029;-59
2023/06/01 06:29:38;;;;;;;13.20;7.33;;;;;;;-145.18;100.00;46539.28;5056188;28;20036;-59
2023/06/01 06:32:04;;;;;;;12.83;7.20;;;;;;;-145.18;100.00;46543.19;5053942;28;20025;-59
2023/06/01 06:34:35;;;;;;;13.10;6.73;;;;;;;-145.18;100.00;46543.19;5054677;28;20029;-59
2023/06/01 06:37:04;;;;;;;17.23;7.03;;;;;;;-145.18;100.00;46545.16;5061815;28;20474;-59
2023/06/01 06:39:30;;;;;;;16.83;6.70;;;;;;;-145.18;100.00;46551.00;5052319;28;20644;-59
2023/06/01 06:41:55;;;;;;;14.13;6.77;;;;;;;-145.18;100.00;46549.06;5033579;28;20549;-59
2023/06/01 06:44:20;;;;;;;17.93;6.70;;;;;;;-145.18;100.00;46551.00;5037619;28;20023;-59
2023/06/01 06:46:46;;;;;;;14.50;6.67;;;;;;;-145.18;100.00;46551.00;5062275;28;20398;-59
2023/06/01 06:49:11;;;;;;;14.47;5.90;;;;;;;-145.18;100.00;46552.97;5035574;28;20029;-59
2023/06/01 06:51:37;;;;;;;15.43;7.17;;;;;;;-145.18;100.00;46547.09;5043156;28;20057;-59
2023/06/01 06:54:05;;;;;;;17.20;7.13;;;;;;;-145.18;100.00;46554.91;5050041;28;20541;-59
2023/06/01 06:56:31;;;;;;;15.70;6.97;;;;;;;-145.18;100.00;46558.81;5053636;28;20056;-59
2023/06/01 06:58:56;;;;;;;15.23;5.97;;;;;;;-145.18;100.00;46566.63;5053210;28;20052;-60
2023/06/01 07:01:25;;;;;;;13.03;6.87;;;;;;;-145.18;100.00;46554.91;5063998;28;20055;-59
2023/06/01 07:03:51;;;;;;;12.20;6.23;;;;;;;-145.18;100.00;46560.78;5051600;28;20037;-59
2023/06/01 07:06:17;;;;;;;9.97;5.70;;;;;;;-145.18;100.00;46551.00;5044582;28;20068;-59
2023/06/01 07:08:43;;;;;;;10.13;5.83;;;;;;;-145.18;100.00;46556.88;5048502;28;20025;-59
2023/06/01 07:11:09;;;;;;;14.67;6.30;;;;;;;-145.18;100.00;46564.69;5044423;28;20025;-60
2023/06/01 07:13:35;;;;;;;10.83;5.67;;;;;;;-145.18;100.00;46554.91;5052578;28;20055;-60
2023/06/01 07:16:02;;;;;;;15.57;6.03;;;;;;;-145.18;100.00;46564.69;5052874;28;20033;-59
2023/06/01 07:18:27;;;;;;;11.20;5.90;;;;;;;-145.18;100.00;46566.63;5039924;28;20029;-59
2023/06/01 07:20:52;;;;;;;12.50;6.33;;;;;;;-145.18;100.00;46576.41;5034823;28;20169;-60
2023/06/01 07:23:18;;;;;;;14.77;6.60;;;;;;;-145.18;100.00;46572.50;5065992;28;20039;-60
2023/06/01 07:25:43;;;;;;;12.23;5.73;;;;;;;-145.18;100.00;46562.72;5045934;28;20478;-59
2023/06/01 07:28:10;;;;;;;12.57;6.37;;;;;;;-145.18;100.00;46566.63;5041315;28;20036;-59
2023/06/01 07:30:35;;;;;;;16.00;6.37;;;;;;;-145.18;100.00;46574.44;5035187;28;20040;-59
2023/06/01 07:33:03;;;;;;;11.53;6.17;;;;;;;-145.18;100.00;46572.50;5052003;28;20639;-60
2023/06/01 07:35:29;;;;;;;12.50;6.00;;;;;;;-145.18;100.00;46582.25;5063781;28;20040;-60
2023/06/01 07:37:55;;;;;;;12.97;5.67;;;;;;;-145.18;100.00;46566.63;5066181;28;20033;-60
2023/06/01 07:40:21;;;;;;;9.40;5.40;;;;;;;-145.18;100.00;46578.34;5052398;28;20025;-60
2023/06/01 07:42:47;;;;;;;13.43;6.57;;;;;;;-145.18;100.00;46560.78;5052119;28;20029;-60
2023/06/01 07:45:13;;;;;;;13.83;5.67;;;;;;;-145.18;100.00;46566.63;5041726;28;20030;-59
2023/06/01 07:47:38;;;;;;;14.90;5.57;;;;;;;-145.18;100.00;46562.72;5019115;28;20032;-59
2023/06/01 07:50:04;;;;;;;14.13;7.10;;;;;;;-145.18;100.00;46564.69;5052575;28;20029;-60
2023/06/01 07:52:30;;;;;;;17.70;6.47;;;;;;;-145.18;100.00;46562.72;5051918;28;20056;-60
2023/06/01 07:54:56;;;;;;;12.17;6.00;;;;;;;-145.18;100.00;46564.69;5052316;28;20086;-60
2023/06/01 07:57:21;;;;;;;12.40;5.93;;;;;;;-145.18;100.00;46560.78;5047492;28;20116;-59
2023/06/01 07:59:47;;;;;;;8.63;5.40;;;;;;;-145.18;100.00;46568.59;5043661;28;20040;-59
2023/06/01 08:02:13;;;;;;;13.93;5.70;;;;;;;-145.18;100.00;46562.72;5051954;28;20493;-59
2023/06/01 08:04:38;;;;;;;13.37;5.70;;;;;;;-145.18;100.00;46582.25;5041630;28;20025;-59
2023/06/01 08:07:06;;;;;;;14.53;6.53;;;;;;;-145.18;100.00;46599.84;5062496;28;20359;-60
2023/06/01 08:09:32;;;;;;;15.47;6.33;;;;;;;-145.18;100.00;46627.19;5051894;28;20037;-60
2023/06/01 08:11:57;;;;;;;12.67;6.17;;;;;;;-145.18;100.00;46625.22;5051816;28;20024;-60
2023/06/01 08:14:23;;;;;;;9.30;5.50;;;;;;;-145.18;100.00;46605.69;5051869;28;20037;-60
2023/06/01 08:16:48;;;;;;;13.20;5.87;;;;;;;-145.18;100.00;46633.06;5051698;28;20028;-59
2023/06/01 08:19:14;;;;;;;17.97;6.27;;;;;;;-145.18;100.00;46640.88;5052273;28;20059;-60
2023/06/01 08:21:41;;;;;;;15.37;5.87;;;;;;;-145.18;100.00;46656.50;5051768;28;20421;-61
2023/06/01 08:24:08;;;;;;;14.90;6.67;;;;;;;-145.18;100.00;46613.50;5063048;28;20040;-59
2023/06/01 08:26:34;;;;;;;15.03;6.23;;;;;;;-145.18;100.00;46635.00;5063316;28;20029;-59
2023/06/01 08:29:00;;;;;;;11.97;6.77;;;;;;;-145.18;100.00;46666.25;5052091;28;20032;-59
2023/06/01 08:31:25;;;;;;;14.80;6.27;;;;;;;-145.18;100.00;46644.78;5034088;28;20033;-59
2023/06/01 08:33:52;;;;;;;10.20;5.73;;;;;;;-145.18;100.00;46648.69;5051856;28;20394;-60
2023/06/01 08:36:18;;;;;;;15.20;6.07;;;;;;;-145.18;100.00;46638.91;5053682;28;20053;-59
2023/06/01 08:38:44;;;;;;;11.33;5.90;;;;;;;-145.18;100.00;46656.50;5060312;28;20095;-59
2023/06/01 08:41:34;;;;;;;14.57;5.60;;;;;;;-145.18;100.00;46681.88;5051851;28;20029;-59
2023/06/01 08:44:03;;;;;;;11.90;5.63;;;;;;;-145.18;100.00;46640.88;5051130;28;20024;-59
2023/06/01 08:46:32;;;;;;;11.33;5.23;;;;;;;-145.18;100.00;46660.41;5051496;28;20074;-59
2023/06/01 08:48:59;;;;;;;13.23;5.37;;;;;;;-145.18;100.00;46650.63;5051735;28;20029;-59
2023/06/01 08:51:25;;;;;;;10.87;5.43;;;;;;;-145.18;100.00;46648.69;5053012;28;20402;-59
2023/06/01 08:53:52;;;;;;;8.60;4.90;;;;;;;-145.18;100.00;46636.94;5066746;28;20516;-59
2023/06/01 08:56:21;;;;;;;13.10;5.37;;;;;;;-145.18;100.00;46676.03;5044655;28;20121;-59
2023/06/01 08:58:47;;;;;;;12.30;5.27;;;;;;;-145.18;100.00;46644.78;5055307;28;20021;-59
2023/06/01 09:01:21;;;;;;;10.30;5.07;;;;;;;-145.18;100.00;46664.31;5046618;28;20025;-59
2023/06/01 09:03:50;;;;;;;11.30;4.70;;;;;;;-145.18;100.00;46640.88;5052315;28;20371;-59
2023/06/01 09:06:16;;;;;;;11.40;4.93;;;;;;;-145.18;100.00;46855.72;5055232;28;20078;-59
2023/06/01 09:08:42;;;;;;;9.80;5.37;;;;;;;-145.18;100.00;46994.44;5055235;28;20459;-59
2023/06/01 09:11:07;;;;;;;11.10;4.73;;;;;;;-145.18;100.00;47295.28;5055452;28;20104;-59
2023/06/01 09:13:36;;;;;;;9.40;4.57;;;;;;;-145.18;100.00;47267.94;5055395;28;20068;-59
2023/06/01 09:16:02;;;;;;;10.07;5.00;;;;;;;-145.18;100.00;47279.66;5045063;28;20029;-59
2023/06/01 09:18:28;;;;;;;9.47;4.67;;;;;;;-145.18;100.00;47135.09;5053603;28;20078;-59
2023/06/01 09:20:54;;;;;;;9.43;5.27;;;;;;;-145.18;100.00;47265.97;5055425;28;20071;-59
2023/06/01 09:23:28;;;;;;;10.83;5.77;;;;;;;-145.18;100.00;47217.13;5060182;28;20075;-59
2023/06/01 09:26:05;;;;;;;12.87;5.53;;;;;;;-145.18;100.00;47258.16;5044729;28;20024;-59
2023/06/01 09:28:58;;;;;;;10.20;4.50;;;;;;;-145.18;100.00;47252.31;5042633;28;20266;-59
2023/06/01 09:31:46;;;;;;;7.90;4.80;;;;;;;-145.18;100.00;47283.56;5055073;28;20079;-59
2023/06/01 09:34:20;;;;;;;7.60;4.50;;;;;;;-145.18;100.00;47252.31;5055025;28;20441;-60
2023/06/01 09:36:50;;;;;;;8.23;4.20;;;;;;;-145.18;100.00;47232.75;5061654;28;20153;-59
2023/06/01 09:39:24;;;;;;;10.57;4.63;;;;;;;-145.18;100.00;47203.47;5046022;28;20029;-59
2023/06/01 09:41:53;;;;;;;9.77;4.10;;;;;;;-145.18;100.00;47203.47;5054705;28;20143;-59
2023/06/01 09:44:24;;;;;;;10.97;5.30;;;;;;;-145.18;100.00;47195.66;5054766;28;20017;-59
2023/06/01 09:46:58;;;;;;;11.13;4.13;;;;;;;-145.18;100.00;47207.38;5054531;28;20021;-59
2023/06/01 09:49:36;;;;;;;8.70;4.80;;;;;;;-145.18;100.00;47193.69;5035846;28;20056;-59
2023/06/01 09:52:04;;;;;;;7.03;4.37;;;;;;;-145.18;100.00;47195.66;5048409;28;20033;-59
2023/06/01 09:54:54;;;;;;;8.97;4.60;;;;;;;-145.18;100.00;47170.25;5054308;28;20107;-60
2023/06/01 09:57:25;;;;;;;14.67;4.90;;;;;;;-145.18;100.00;47197.59;5067511;28;20028;-60
2023/06/01 09:59:50;;;;;;;8.50;4.37;;;;;;;-145.18;100.00;47197.59;5054575;28;20033;-59
2023/06/01 10:02:21;;;;;;;8.60;4.67;;;;;;;-145.18;100.00;47193.69;5034670;28;20509;-60
2023/06/01 10:04:52;;;;;;;10.57;4.73;;;;;;;-145.18;100.00;47197.59;5054066;28;20036;-59
2023/06/01 10:07:19;;;;;;;10.03;4.17;;;;;;;-145.18;100.00;47203.47;5047725;28;20466;-60
2023/06/01 10:09:50;;;;;;;14.13;4.83;;;;;;;-145.18;100.00;47226.91;5061071;28;20111;-60
2023/06/01 10:12:16;;;;;;;9.77;4.47;;;;;;;-145.18;100.00;47193.69;5054498;28;20434;-60
2023/06/01 10:14:41;;;;;;;10.50;4.33;;;;;;;-145.18;100.00;47199.56;5036251;28;20111;-59
2023/06/01 10:17:08;;;;;;;10.00;4.30;;;;;;;-145.18;100.00;47178.06;5054380;28;20032;-59
2023/06/01 10:19:37;;;;;;;8.80;4.50;;;;;;;-145.18;100.00;47174.16;5036140;28;20029;-60
2023/06/01 10:22:03;;;;;;;11.17;5.40;;;;;;;-145.18;100.00;47197.59;5053639;28;20040;-60
2023/06/01 10:24:29;;;;;;;7.73;4.70;;;;;;;-145.18;100.00;47168.28;5053586;28;20036;-60
2023/06/01 10:27:26;;;;;;;8.23;4.33;;;;;;;-145.18;100.00;47170.25;5054227;28;20033;-60
2023/06/01 10:29:53;;;;;;;8.73;4.03;;;;;;;-145.18;100.00;47187.84;5053472;28;20500;-59
2023/06/01 10:32:37;;;;;;;12.20;4.73;;;;;;;-145.18;100.00;47191.75;5054164;28;20112;-60
2023/06/01 10:35:07;;;;;;;12.57;4.50;;;;;;;-145.18;100.00;47183.94;5042454;28;20090;-60
2023/06/01 10:37:33;;;;;;;10.53;4.00;;;;;;;-145.18;100.00;47183.94;5065116;28;20052;-59
2023/06/01 10:40:16;;;;;;;9.70;4.87;;;;;;;-145.18;100.00;47168.28;5053745;28;20501;-59
2023/06/01 10:42:42;;;;;;;8.03;4.43;;;;;;;-145.18;100.00;47162.44;5053556;28;20031;-59
2023/06/01 10:45:28;;;;;;;10.67;3.97;;;;;;;-145.18;100.00;47158.53;5053331;28;20025;-59
2023/06/01 10:47:53;;;;;;;6.57;4.00;;;;;;;-145.18;100.00;47152.66;5053237;28;20043;-60
2023/06/01 10:50:19;;;;;;;7.37;3.63;;;;;;;-145.18;100.00;47156.56;5053197;28;20037;-59
2023/06/01 10:52:45;;;;;;;7.70;4.17;;;;;;;-145.18;100.00;47150.72;5053340;28;20106;-60
2023/06/01 10:55:11;;;;;;;8.87;4.20;;;;;;;-145.18;100.00;47140.94;5053471;28;20021;-59
2023/06/01 10:57:37;;;;;;;9.37;3.80;;;;;;;-145.18;100.00;47131.19;5053232;28;20147;-60
2023/06/01 11:00:30;;;;;;;8.80;4.50;;;;;;;-145.18;100.00;47121.41;5053491;28;20036;-60
2023/06/01 11:02:57;;;;;;;13.23;4.83;;;;;;;-145.18;100.00;47142.91;5044099;28;20052;-59
2023/06/01 11:05:48;;;;;;;7.23;4.90;;;;;;;-145.18;100.00;47152.66;5053144;28;20028;-59